Raleigh Durham International Airport
KRDU : now visible

Airfield :











YOU CAN JOIN US ON...

 
LOGIN :

Register | Disclaimer

   EN    FR    IT 

 









Legend :    VFR   Marginal VFR   IFR   Intensive IFR   Very Intensive IFR
Visi :
Ceiling :
>= 8 km
>= 3000ft
5 to 8 km
1000 to 3000 ft
1500m to 5 km
500 to 1000 ft
800 to 1500m
200 to 500 ft
< 800m
< 200 ft
Symbols :   Thunderstorms  Fog  Heavy snow  Heavy precipitations  Wind > 20 kt






- Airport Elevation : 435 ft
- IATA code : RDU


KRDU - Raleigh Durham International

CURRENT METAR :
  • 152305Z 21003KT 3SM -RA BR BKN006 BKN015 OVC048 09/08 A2971 RMK AO2 SFC VIS 4 P0001 T00940083

EXPIRED METARs :
  • 152251Z 23004KT 3SM -RA BR SCT006 BKN015 OVC048 09/08 A2972 RMK AO2 SLP065 P0013 T00890083
  • 152200Z 20007KT 3SM -RA BR FEW006 SCT030 OVC050 09/08 A2972 RMK AO2 SFC VIS 4 P0007 T00940083
  • 152151Z 22007KT 2 1/2SM RA BR SCT006 BKN030 OVC060 09/08 A2971 RMK AO2 SLP062 P0007 T00940083
  • 152051Z 17009KT 4SM -RA BR FEW028 BKN055 OVC075 10/07 A2969 RMK AO2 SLP055 P0002 60002 T01000072 56012

TAF KRDU
Valid from the 15 at 21:00 until the 16 at 18:00 UTC


152108Z 1521/1618 19010G16KT 3SM -RA BR OVC050
FM152230 21010G16KT 3SM -RA BR OVC010
FM160100 20004KT P6SM VCSH BKN035
FM160400 24003KT P6SM SCT100
FM161500 24008KT P6SM BKN035
KZDC FIR / North America



MET'MAP, your aeronautical weather chart ! - Copyright ORBIFLY December 2007 - Disclaimer

ORBIFLY MET'MAP TEAM :

Programming & Development : Alexandra Zaïnal
Concept & original design : Baudouin d'Aumeries
Assistance for programming : Marc-Olivier Méhu
Technical & hardware support : Manuel Goepfert

Contact : metmap@orbifly.com




SOURCES & CREDITS :

   NOAA       Earth
Advisory